Latest Weather Observations for West Roebuck

IDW60801

Issued at 1:02 pm WST Sunday 30 April 2017 (issued every 30 minutes, with the page automatically refreshed every 10 minutes)

About weather observations | Map of weather stations | Latest weather observations for WA | Other Formats
Station Details ID: 003096 Name: WEST ROEBUCK Lat: -17.90 Lon: 122.31 Height: 32.0 m
Data from the previous 72 hours. | See also: Recent months at West Roebuck
Date/Time
WST
Temp
°C
App
Temp
°C
Dew
Point
°C
Rel
Hum
%
Delta-T
°C
Wind Press
QNH
hPa
Press
MSL
hPa
Rain since
9am
mm
Dir  Spd
km/h
Gust
km/h
Spd
kts
Gust
kts
30/01:00pm 32.7 - - - - SE 13 20 7 11 - - 0.0
30/12:30pm 32.6 - - - - SE 13 22 7 12 - - 0.0
30/12:00pm 31.9 - - - - E 13 24 7 13 - - 0.0
30/11:30am 31.2 - - - - SE 15 26 8 14 - - 0.0
30/11:00am 30.8 - - - - ESE 17 26 9 14 - - 0.0
30/10:30am 30.2 - - - - E 15 22 8 12 - - 0.0
30/10:00am 29.2 - - - - ESE 17 24 9 13 - - 0.0
30/09:30am 28.5 - - - - E 17 24 9 13 - - 0.0
30/09:00am 27.7 - - - - E 17 28 9 15 - - 0.0
30/08:30am 26.9 - - - - ESE 11 17 6 9 - - 0.0
30/08:00am 25.2 - - - - ESE 11 17 6 9 - - 0.0
30/07:30am 22.9 - - - - ESE 7 9 4 5 - - 0.0
30/07:00am 21.0 - - - - E 6 7 3 4 - - 0.0
30/06:30am 20.2 - - - - ESE 7 9 4 5 - - 0.0
30/06:00am 20.0 - - - - E 7 9 4 5 - - 0.0
30/05:30am 19.8 - - - - E 7 9 4 5 - - 0.0
30/05:00am 19.2 - - - - E 9 9 5 5 - - 0.0
30/04:30am 19.2 - - - - ESE 7 9 4 5 - - 0.0
30/04:00am 20.6 - - - - ESE 7 9 4 5 - - 0.0
30/03:30am 21.5 - - - - ESE 7 9 4 5 - - 0.0
30/03:00am 21.8 - - - - ESE 9 11 5 6 - - 0.0
30/02:30am 21.8 - - - - SE 7 9 4 5 - - 0.0
30/02:00am 21.5 - - - - ESE 7 11 4 6 - - 0.0
30/01:30am 21.1 - - - - ESE 9 9 5 5 - - 0.0
30/01:00am 21.6 - - - - SE 9 11 5 6 - - 0.0
30/12:30am 21.4 - - - - SE 7 9 4 5 - - 0.0
30/12:00am 22.2 - - - - SE 7 9 4 5 - - 0.0
 
Date/Time
WST
Temp
°C
App
Temp
°C
Dew
Point
°C
Rel
Hum
%
Delta-T
°C
Wind Press
QNH
hPa
Press
MSL
hPa
Rain since
9am
mm
Dir  Spd
km/h
Gust
km/h
Spd
kts
Gust
kts
29/11:30pm 22.8 - - - - SE 7 11 4 6 - - 0.0
29/11:00pm 22.8 - - - - S 9 11 5 6 - - 0.0
29/10:30pm 22.7 - - - - SE 7 9 4 5 - - 0.0
29/10:00pm 22.8 - - - - ESE 7 9 4 5 - - 0.0
29/09:30pm 22.5 - - - - ESE 7 9 4 5 - - 0.0
29/09:00pm 21.7 - - - - ESE 7 9 4 5 - - 0.0
29/08:30pm 20.9 - - - - ESE 9 9 5 5 - - 0.0
29/08:00pm 21.5 - - - - ESE 9 9 5 5 - - 0.0
29/07:30pm 22.3 - - - - ESE 7 9 4 5 - - 0.0
29/07:00pm 23.5 - - - - ESE 7 9 4 5 - - 0.0
29/06:30pm 24.6 - - - - E 7 7 4 4 - - 0.0
29/06:00pm 25.3 - - - - ESE 7 9 4 5 - - 0.0
29/05:30pm 27.3 - - - - ENE 6 9 3 5 - - 0.0
29/05:00pm 28.3 - - - - E 7 9 4 5 - - 0.0
29/04:30pm 28.9 - - - - E 7 11 4 6 - - 0.0
29/04:00pm 29.4 - - - - E 7 13 4 7 - - 0.0
29/03:30pm 29.9 - - - - E 13 17 7 9 - - 0.0
29/03:00pm 30.8 - - - - E 13 24 7 13 - - 0.0
29/02:30pm 31.4 - - - - E 15 26 8 14 - - 0.0
29/02:00pm 31.3 - - - - ESE 15 22 8 12 - - 0.0
29/01:30pm 31.2 - - - - SE 15 24 8 13 - - 0.0
29/01:00pm 30.7 - - - - ESE 15 28 8 15 - - 0.0
29/12:30pm 30.9 - - - - ESE 19 28 10 15 - - 0.0
29/12:00pm 30.5 - - - - ESE 17 30 9 16 - - 0.0
29/11:30am 30.3 - - - - ESE 17 28 9 15 - - 0.0
29/11:00am 29.2 - - - - ESE 19 26 10 14 - - 0.0
29/10:30am 29.0 - - - - ESE 15 24 8 13 - - 0.0
29/10:00am 28.5 - - - - E 15 24 8 13 - - 0.0
29/09:30am 27.4 - - - - ESE 15 28 8 15 - - 0.0
29/09:00am 26.3 - - - - ESE 17 28 9 15 - - 0.0
29/08:30am 25.4 - - - - ESE 15 22 8 12 - - 0.0
29/08:00am 23.9 - - - - ESE 13 24 7 13 - - 0.0
29/07:30am 22.5 - - - - ESE 13 20 7 11 - - 0.0
29/07:00am 22.1 - - - - ESE 11 17 6 9 - - 0.0
29/06:30am 19.8 - - - - ESE 9 11 5 6 - - 0.0
29/06:00am 19.2 - - - - ESE 7 9 4 5 - - 0.0
29/05:30am 19.1 - - - - ESE 9 13 5 7 - - 0.0
29/05:00am 18.9 - - - - ESE 9 13 5 7 - - 0.0
29/04:30am 18.3 - - - - E 7 9 4 5 - - 0.0
29/04:00am 17.8 - - - - ESE 9 11 5 6 - - 0.0
29/03:30am 17.2 - - - - SE 9 11 5 6 - - 0.0
29/03:00am 17.1 - - - - ESE 9 11 5 6 - - 0.0
29/02:30am 17.1 - - - - ESE 9 11 5 6 - - 0.0
29/02:00am 17.1 - - - - E 9 9 5 5 - - 0.0
29/01:30am 17.5 - - - - ESE 7 9 4 5 - - 0.0
29/01:00am 18.2 - - - - E 7 9 4 5 - - 0.0
29/12:30am 18.8 - - - - ESE 9 11 5 6 - - 0.0
29/12:00am 18.9 - - - - E 9 11 5 6 - - 0.0
 
Date/Time
WST
Temp
°C
App
Temp
°C
Dew
Point
°C
Rel
Hum
%
Delta-T
°C
Wind Press
QNH
hPa
Press
MSL
hPa
Rain since
9am
mm
Dir  Spd
km/h
Gust
km/h
Spd
kts
Gust
kts
28/11:30pm 19.1 - - - - E 9 11 5 6 - - 0.0
28/11:00pm 19.7 - - - - ESE 9 9 5 5 - - 0.0
28/10:30pm 21.0 - - - - ESE 9 11 5 6 - - 0.0
28/10:00pm 21.2 - - - - ESE 11 13 6 7 - - 0.0
28/09:30pm 20.8 - - - - ESE 9 11 5 6 - - 0.0
28/09:00pm 21.0 - - - - ESE 9 11 5 6 - - 0.0
28/08:30pm 22.3 - - - - ESE 9 13 5 7 - - 0.0
28/08:00pm 22.5 - - - - E 9 11 5 6 - - 0.0
28/07:30pm 23.1 - - - - ESE 9 9 5 5 - - 0.0
28/07:00pm 24.5 - - - - E 7 9 4 5 - - 0.0
28/06:30pm 26.1 - - - - E 9 11 5 6 - - 0.0
28/06:00pm 26.9 - - - - E 11 15 6 8 - - 0.0
28/05:30pm 27.5 - - - - E 9 13 5 7 - - 0.0
28/05:00pm 29.4 - - - - E 9 13 5 7 - - 0.0
28/04:30pm 30.9 - - - - E 11 17 6 9 - - 0.0
28/04:00pm 31.9 - - - - E 13 20 7 11 - - 0.0
28/03:30pm 32.3 - - - - E 17 28 9 15 - - 0.0
28/03:00pm 32.9 - - - - E 17 28 9 15 - - 0.0
28/02:30pm 33.0 - - - - E 17 28 9 15 - - 0.0
28/02:00pm 33.3 - - - - E 13 22 7 12 - - 0.0
28/01:30pm 32.6 - - - - E 19 28 10 15 - - 0.0
28/01:00pm 32.2 - - - - E 19 30 10 16 - - 0.0
28/12:30pm 32.4 - - - - ESE 15 26 8 14 - - 0.0
28/12:00pm 32.1 - - - - E 15 26 8 14 - - 0.0
28/11:30am 32.1 - - - - E 15 24 8 13 - - 0.0
28/11:00am 31.4 - - - - E 17 30 9 16 - - 0.0
28/10:30am 30.2 - - - - E 20 35 11 19 - - 0.0
28/10:00am 29.8 - - - - E 20 33 11 18 - - 0.0
28/09:30am 29.2 - - - - E 15 28 8 15 - - 0.0
28/09:00am 27.7 - - - - E 20 30 11 16 - - 0.0
28/08:30am 26.2 - - - - E 17 30 9 16 - - 0.0
28/08:00am 24.5 - - - - E 15 24 8 13 - - 0.0
28/07:30am 23.4 - - - - E 15 20 8 11 - - 0.0
28/07:00am 22.5 - - - - E 15 20 8 11 - - 0.0
28/06:30am 21.8 - - - - E 13 19 7 10 - - 0.0
28/06:00am 21.8 - - - - E 11 17 6 9 - - 0.0
28/05:30am 22.1 - - - - E 13 17 7 9 - - 0.0
28/05:00am 21.9 - - - - E 11 17 6 9 - - 0.0
28/04:30am 20.1 - - - - E 9 13 5 7 - - 0.0
28/04:00am 20.3 - - - - E 9 13 5 7 - - 0.0
28/03:30am 19.9 - - - - E 9 11 5 6 - - 0.0
28/03:00am 20.4 - - - - E 9 9 5 5 - - 0.0
28/02:30am 21.3 - - - - ESE 9 11 5 6 - - 0.0
28/02:00am 21.5 - - - - ESE 9 11 5 6 - - 0.0
28/01:30am 22.8 - - - - ESE 9 13 5 7 - - 0.0
28/01:00am 22.9 - - - - SE 9 13 5 7 - - 0.0
28/12:30am 23.2 - - - - ESE 9 11 5 6 - - 0.0
28/12:00am 24.1 - - - - SE 9 13 5 7 - - 0.0
 
Date/Time
WST
Temp
°C
App
Temp
°C
Dew
Point
°C
Rel
Hum
%
Delta-T
°C
Wind Press
QNH
hPa
Press
MSL
hPa
Rain since
9am
mm
Dir  Spd
km/h
Gust
km/h
Spd
kts
Gust
kts
27/11:30pm 24.8 - - - - SE 11 15 6 8 - - 0.0
27/11:00pm 24.9 - - - - SE 9 13 5 7 - - 0.0
27/10:30pm 25.5 - - - - SE 9 13 5 7 - - 0.0
27/10:00pm 26.0 - - - - SE 9 13 5 7 - - 0.0
27/09:30pm 25.7 - - - - SE 9 13 5 7 - - 0.0
27/09:00pm 25.1 - - - - SE 9 11 5 6 - - 0.0
27/08:30pm 25.4 - - - - E 7 9 4 5 - - 0.0
27/08:00pm 25.9 - - - - ESE 7 11 4 6 - - 0.0
27/07:30pm 26.4 - - - - SE 9 9 5 5 - - 0.0
27/07:00pm 26.9 - - - - SSE 9 9 5 5 - - 0.0
27/06:30pm 27.2 - - - - SSW 7 9 4 5 - - 0.0
27/06:00pm 28.0 - - - - S 6 7 3 4 - - 0.0
27/05:30pm 29.4 - - - - E 6 6 3 3 - - 0.0
27/05:00pm 31.8 - - - - E 7 9 4 5 - - 0.0
27/04:30pm 33.2 - - - - E 11 17 6 9 - - 0.0
27/04:00pm 33.6 - - - - E 9 15 5 8 - - 0.0
27/03:30pm 34.2 - - - - E 9 13 5 7 - - 0.0
27/03:00pm 34.1 - - - - ESE 11 20 6 11 - - 0.0
27/02:30pm 34.0 - - - - E 13 26 7 14 - - 0.0
27/02:00pm 34.3 - - - - E 13 20 7 11 - - 0.0
27/01:30pm 33.5 - - - - ESE 15 22 8 12 - - 0.0

Other Formats:

Comma delimited format used in spreadsheet applications
http://www.bom.gov.au/fwo/IDW60801/IDW60801.95204.axf

JavaScript Object Notation format (JSON) in row-major order
http://www.bom.gov.au/fwo/IDW60801/IDW60801.95204.json